EKCH/CPH METAR and TAF weather

Enter ICAO airport designator
Station Type Date Time Source
EKCH METAR 2018/06/25 16:50 UTC NOAA

EKCH 251650Z 10003KT CAVOK 21/14 Q1018 NOSIG


Station Type Date Time Source
EKCH Decoded METAR 2018/06/25 16:50 UTC NOAA

Koebenhavn / Kastrup, Denmark (EKCH) 55-37N 012-39E 5M
Jun 25, 2018 - 12:50 PM EDT / 2018.06.25 1650 UTC
Wind: from the E (100 degrees) at 3 MPH (3 KT):0
Visibility: greater than 7 mile(s):0
Temperature: 69 F (21 C)
Dew Point: 57 F (14 C)
Relative Humidity: 64%
Pressure (altimeter): 30.06 in. Hg (1018 hPa)
ob: EKCH 251650Z 10003KT CAVOK 21/14 Q1018 NOSIG
cycle: 17

Station Type Date Time Source
EKCH TAF 2018/06/25 18:59 UTC NOAA

TAF EKCH 251653Z 2518/2618 VRB02KT 9999 FEW035
BECMG 2611/2613 16012KT


Example: see airport list